sensor_id;sensor_type;location;lat;lon;timestamp;P1;durP1;ratioP1;P2;durP2;ratioP2
75112;SDS011;63692;47.338;8.520;2023-07-24T04:49:47;20.00;;;8.05;;
75112;SDS011;63692;47.338;8.520;2023-07-24T04:52:13;16.77;;;7.75;;
75112;SDS011;63692;47.338;8.520;2023-07-24T04:57:06;16.92;;;8.27;;
75112;SDS011;63692;47.338;8.520;2023-07-24T04:59:33;17.33;;;8.48;;
75112;SDS011;63692;47.338;8.520;2023-07-24T05:04:26;15.55;;;8.00;;
75112;SDS011;63692;47.338;8.520;2023-07-24T05:06:52;12.77;;;6.75;;
75112;SDS011;63692;47.338;8.520;2023-07-24T05:09:17;12.93;;;6.53;;
75112;SDS011;63692;47.338;8.520;2023-07-24T05:14:11;12.65;;;6.68;;
75112;SDS011;63692;47.338;8.520;2023-07-24T05:19:04;11.60;;;6.15;;
75112;SDS011;63692;47.338;8.520;2023-07-24T05:24:03;11.88;;;6.03;;
75112;SDS011;63692;47.338;8.520;2023-07-24T05:26:29;14.30;;;5.95;;
75112;SDS011;63692;47.338;8.520;2023-07-24T05:28:54;10.90;;;6.07;;
75112;SDS011;63692;47.338;8.520;2023-07-24T05:31:20;15.18;;;6.53;;
75112;SDS011;63692;47.338;8.520;2023-07-24T05:33:45;10.23;;;5.63;;
75112;SDS011;63692;47.338;8.520;2023-07-24T05:36:11;10.30;;;4.78;;
75112;SDS011;63692;47.338;8.520;2023-07-24T05:41:04;8.13;;;5.10;;
75112;SDS011;63692;47.338;8.520;2023-07-24T05:43:30;8.75;;;4.75;;
75112;SDS011;63692;47.338;8.520;2023-07-24T05:45:56;8.15;;;5.10;;
75112;SDS011;63692;47.338;8.520;2023-07-24T05:48:22;7.88;;;4.68;;
75112;SDS011;63692;47.338;8.520;2023-07-24T05:50:48;9.30;;;4.70;;
75112;SDS011;63692;47.338;8.520;2023-07-24T05:53:14;11.40;;;4.95;;
75112;SDS011;63692;47.338;8.520;2023-07-24T05:55:41;8.85;;;5.10;;
75112;SDS011;63692;47.338;8.520;2023-07-24T05:58:07;8.38;;;4.70;;
75112;SDS011;63692;47.338;8.520;2023-07-24T06:00:33;8.23;;;4.90;;
75112;SDS011;63692;47.338;8.520;2023-07-24T06:03:00;8.88;;;5.00;;
75112;SDS011;63692;47.338;8.520;2023-07-24T06:05:25;10.82;;;5.18;;
75112;SDS011;63692;47.338;8.520;2023-07-24T06:07:51;9.98;;;5.10;;
75112;SDS011;63692;47.338;8.520;2023-07-24T06:17:39;9.52;;;4.72;;
75112;SDS011;63692;47.338;8.520;2023-07-24T06:24:59;7.68;;;4.85;;
75112;SDS011;63692;47.338;8.520;2023-07-24T06:27:25;12.68;;;4.93;;
75112;SDS011;63692;47.338;8.520;2023-07-24T06:29:50;9.70;;;5.18;;
75112;SDS011;63692;47.338;8.520;2023-07-24T06:32:16;8.88;;;5.20;;
75112;SDS011;63692;47.338;8.520;2023-07-24T06:34:41;9.32;;;5.43;;
75112;SDS011;63692;47.338;8.520;2023-07-24T06:37:07;10.52;;;5.53;;
75112;SDS011;63692;47.338;8.520;2023-07-24T06:39:32;8.20;;;4.93;;
75112;SDS011;63692;47.338;8.520;2023-07-24T06:41:58;9.10;;;4.90;;
75112;SDS011;63692;47.338;8.520;2023-07-24T06:44:24;9.27;;;4.72;;
75112;SDS011;63692;47.338;8.520;2023-07-24T06:46:49;10.73;;;5.05;;
75112;SDS011;63692;47.338;8.520;2023-07-24T06:49:15;8.98;;;4.80;;
75112;SDS011;63692;47.338;8.520;2023-07-24T06:51:40;8.63;;;4.95;;
75112;SDS011;63692;47.338;8.520;2023-07-24T06:54:06;8.27;;;4.80;;
75112;SDS011;63692;47.338;8.520;2023-07-24T06:56:32;8.55;;;5.05;;
75112;SDS011;63692;47.338;8.520;2023-07-24T06:58:57;10.13;;;5.03;;
75112;SDS011;63692;47.338;8.520;2023-07-24T07:01:26;9.50;;;4.85;;
75112;SDS011;63692;47.338;8.520;2023-07-24T07:03:52;8.90;;;5.50;;
75112;SDS011;63692;47.338;8.520;2023-07-24T07:13:47;11.48;;;6.07;;
75112;SDS011;63692;47.338;8.520;2023-07-24T07:16:13;9.25;;;5.40;;
75112;SDS011;63692;47.338;8.520;2023-07-24T07:26:15;11.73;;;5.85;;
75112;SDS011;63692;47.338;8.520;2023-07-24T07:28:41;9.05;;;5.57;;
75112;SDS011;63692;47.338;8.520;2023-07-24T07:33:33;8.88;;;5.32;;
75112;SDS011;63692;47.338;8.520;2023-07-24T07:35:58;11.05;;;5.32;;
75112;SDS011;63692;47.338;8.520;2023-07-24T07:38:24;9.32;;;5.28;;
75112;SDS011;63692;47.338;8.520;2023-07-24T07:40:50;10.10;;;6.10;;
75112;SDS011;63692;47.338;8.520;2023-07-24T07:43:15;8.75;;;5.50;;
75112;SDS011;63692;47.338;8.520;2023-07-24T07:45:41;11.20;;;5.43;;
75112;SDS011;63692;47.338;8.520;2023-07-24T07:48:06;9.90;;;5.47;;
75112;SDS011;63692;47.338;8.520;2023-07-24T07:50:32;12.18;;;5.70;;
75112;SDS011;63692;47.338;8.520;2023-07-24T07:52:57;10.00;;;5.60;;
75112;SDS011;63692;47.338;8.520;2023-07-24T07:55:25;11.40;;;5.85;;
75112;SDS011;63692;47.338;8.520;2023-07-24T07:57:50;10.88;;;5.72;;
75112;SDS011;63692;47.338;8.520;2023-07-24T08:00:16;12.30;;;7.43;;
75112;SDS011;63692;47.338;8.520;2023-07-24T08:02:41;9.45;;;6.22;;
75112;SDS011;63692;47.338;8.520;2023-07-24T08:05:07;9.63;;;5.82;;
75112;SDS011;63692;47.338;8.520;2023-07-24T08:07:34;10.68;;;6.38;;
75112;SDS011;63692;47.338;8.520;2023-07-24T08:09:59;9.52;;;5.80;;
75112;SDS011;63692;47.338;8.520;2023-07-24T08:12:25;9.90;;;5.57;;
75112;SDS011;63692;47.338;8.520;2023-07-24T08:14:51;10.57;;;5.93;;
75112;SDS011;63692;47.338;8.520;2023-07-24T08:17:16;11.18;;;5.88;;
75112;SDS011;63692;47.338;8.520;2023-07-24T08:19:42;13.68;;;6.50;;
75112;SDS011;63692;47.338;8.520;2023-07-24T08:22:07;9.85;;;5.82;;
75112;SDS011;63692;47.338;8.520;2023-07-24T08:24:33;9.27;;;5.72;;
75112;SDS011;63692;47.338;8.520;2023-07-24T08:27:00;11.02;;;5.55;;
75112;SDS011;63692;47.338;8.520;2023-07-24T08:29:25;11.20;;;6.93;;
75112;SDS011;63692;47.338;8.520;2023-07-24T08:31:51;12.05;;;7.10;;
75112;SDS011;63692;47.338;8.520;2023-07-24T08:34:17;9.80;;;6.00;;
75112;SDS011;63692;47.338;8.520;2023-07-24T08:36:42;10.15;;;5.93;;
75112;SDS011;63692;47.338;8.520;2023-07-24T08:39:08;11.85;;;6.18;;
75112;SDS011;63692;47.338;8.520;2023-07-24T08:41:33;9.88;;;6.10;;
75112;SDS011;63692;47.338;8.520;2023-07-24T08:44:00;10.15;;;5.72;;
75112;SDS011;63692;47.338;8.520;2023-07-24T08:46:27;12.48;;;5.65;;
75112;SDS011;63692;47.338;8.520;2023-07-24T08:48:53;9.90;;;6.10;;
75112;SDS011;63692;47.338;8.520;2023-07-24T08:51:19;9.70;;;5.72;;
75112;SDS011;63692;47.338;8.520;2023-07-24T08:53:47;9.70;;;6.03;;
75112;SDS011;63692;47.338;8.520;2023-07-24T08:56:13;13.70;;;6.00;;
75112;SDS011;63692;47.338;8.520;2023-07-24T08:58:39;10.65;;;6.38;;
75112;SDS011;63692;47.338;8.520;2023-07-24T09:01:05;10.82;;;6.07;;
75112;SDS011;63692;47.338;8.520;2023-07-24T09:03:35;14.68;;;6.07;;
75112;SDS011;63692;47.338;8.520;2023-07-24T09:06:01;12.02;;;6.43;;
75112;SDS011;63692;47.338;8.520;2023-07-24T09:08:29;10.77;;;6.38;;
75112;SDS011;63692;47.338;8.520;2023-07-24T09:10:55;12.30;;;6.57;;
75112;SDS011;63692;47.338;8.520;2023-07-24T09:13:21;10.27;;;6.50;;
75112;SDS011;63692;47.338;8.520;2023-07-24T09:15:46;11.18;;;6.50;;
75112;SDS011;63692;47.338;8.520;2023-07-24T09:18:12;12.63;;;6.15;;
75112;SDS011;63692;47.338;8.520;2023-07-24T09:20:41;10.68;;;6.22;;
75112;SDS011;63692;47.338;8.520;2023-07-24T09:23:08;11.05;;;6.40;;
75112;SDS011;63692;47.338;8.520;2023-07-24T09:25:34;10.20;;;5.88;;
75112;SDS011;63692;47.338;8.520;2023-07-24T09:28:08;10.10;;;6.07;;
75112;SDS011;63692;47.338;8.520;2023-07-24T09:30:38;10.57;;;6.72;;
75112;SDS011;63692;47.338;8.520;2023-07-24T09:33:04;10.75;;;6.78;;
75112;SDS011;63692;47.338;8.520;2023-07-24T09:40:28;11.23;;;6.60;;
75112;SDS011;63692;47.338;8.520;2023-07-24T09:43:02;10.43;;;6.35;;
75112;SDS011;63692;47.338;8.520;2023-07-24T09:45:27;10.85;;;6.03;;
75112;SDS011;63692;47.338;8.520;2023-07-24T09:53:06;11.23;;;6.55;;
75112;SDS011;63692;47.338;8.520;2023-07-24T10:01:04;12.40;;;6.55;;
75112;SDS011;63692;47.338;8.520;2023-07-24T10:11:00;11.63;;;6.40;;
75112;SDS011;63692;47.338;8.520;2023-07-24T10:13:26;12.15;;;6.30;;
75112;SDS011;63692;47.338;8.520;2023-07-24T10:20:48;10.95;;;5.68;;
75112;SDS011;63692;47.338;8.520;2023-07-24T10:25:51;20.70;;;6.10;;
75112;SDS011;63692;47.338;8.520;2023-07-24T10:28:18;11.60;;;5.70;;
75112;SDS011;63692;47.338;8.520;2023-07-24T10:46:08;12.45;;;5.80;;
75112;SDS011;63692;47.338;8.520;2023-07-24T10:48:34;10.13;;;5.57;;
75112;SDS011;63692;47.338;8.520;2023-07-24T10:51:05;7.25;;;4.38;;
75112;SDS011;63692;47.338;8.520;2023-07-24T10:53:36;10.02;;;4.30;;
75112;SDS011;63692;47.338;8.520;2023-07-24T10:56:03;8.43;;;4.28;;
75112;SDS011;63692;47.338;8.520;2023-07-24T10:58:30;8.75;;;4.22;;
75112;SDS011;63692;47.338;8.520;2023-07-24T11:00:56;7.25;;;4.22;;
75112;SDS011;63692;47.338;8.520;2023-07-24T11:03:23;8.52;;;4.65;;
75112;SDS011;63692;47.338;8.520;2023-07-24T11:05:49;11.05;;;5.05;;
75112;SDS011;63692;47.338;8.520;2023-07-24T11:08:16;5.72;;;3.00;;
75112;SDS011;63692;47.338;8.520;2023-07-24T11:10:52;6.00;;;2.05;;
75112;SDS011;63692;47.338;8.520;2023-07-24T11:13:20;3.03;;;1.60;;
75112;SDS011;63692;47.338;8.520;2023-07-24T11:15:50;3.67;;;1.42;;
75112;SDS011;63692;47.338;8.520;2023-07-24T11:20:45;5.38;;;1.95;;
75112;SDS011;63692;47.338;8.520;2023-07-24T11:23:11;5.35;;;2.22;;
75112;SDS011;63692;47.338;8.520;2023-07-24T11:25:38;4.78;;;1.90;;
75112;SDS011;63692;47.338;8.520;2023-07-24T11:28:05;3.47;;;1.50;;
75112;SDS011;63692;47.338;8.520;2023-07-24T11:30:31;3.05;;;1.40;;
75112;SDS011;63692;47.338;8.520;2023-07-24T11:33:00;4.63;;;1.80;;
75112;SDS011;63692;47.338;8.520;2023-07-24T11:35:28;3.20;;;1.48;;
75112;SDS011;63692;47.338;8.520;2023-07-24T11:37:53;4.78;;;1.50;;
75112;SDS011;63692;47.338;8.520;2023-07-24T11:40:19;3.70;;;1.50;;
75112;SDS011;63692;47.338;8.520;2023-07-24T11:42:46;5.07;;;1.52;;
75112;SDS011;63692;47.338;8.520;2023-07-24T11:45:13;5.95;;;1.75;;
75112;SDS011;63692;47.338;8.520;2023-07-24T11:47:46;3.45;;;1.38;;
75112;SDS011;63692;47.338;8.520;2023-07-24T11:50:13;4.25;;;1.45;;
75112;SDS011;63692;47.338;8.520;2023-07-24T11:52:47;5.43;;;2.72;;
75112;SDS011;63692;47.338;8.520;2023-07-24T11:55:15;4.60;;;1.70;;
75112;SDS011;63692;47.338;8.520;2023-07-24T11:58:01;5.65;;;2.22;;
75112;SDS011;63692;47.338;8.520;2023-07-24T12:05:23;5.28;;;2.10;;
75112;SDS011;63692;47.338;8.520;2023-07-24T12:07:53;5.20;;;2.00;;
75112;SDS011;63692;47.338;8.520;2023-07-24T12:10:26;6.47;;;3.70;;
75112;SDS011;63692;47.338;8.520;2023-07-24T12:12:52;5.45;;;1.75;;
75112;SDS011;63692;47.338;8.520;2023-07-24T12:15:19;3.92;;;1.70;;
75112;SDS011;63692;47.338;8.520;2023-07-24T12:17:44;4.10;;;1.70;;
75112;SDS011;63692;47.338;8.520;2023-07-24T12:20:10;3.55;;;1.70;;
75112;SDS011;63692;47.338;8.520;2023-07-24T12:22:36;4.32;;;2.40;;
75112;SDS011;63692;47.338;8.520;2023-07-24T12:25:03;2.78;;;1.40;;
75112;SDS011;63692;47.338;8.520;2023-07-24T12:27:29;4.13;;;1.58;;
75112;SDS011;63692;47.338;8.520;2023-07-24T12:29:56;3.47;;;1.60;;
75112;SDS011;63692;47.338;8.520;2023-07-24T12:32:22;3.78;;;1.60;;
75112;SDS011;63692;47.338;8.520;2023-07-24T12:37:15;4.50;;;1.63;;
75112;SDS011;63692;47.338;8.520;2023-07-24T12:39:41;3.92;;;1.60;;
75112;SDS011;63692;47.338;8.520;2023-07-24T12:42:07;4.20;;;1.42;;
75112;SDS011;63692;47.338;8.520;2023-07-24T12:44:32;4.50;;;1.60;;
75112;SDS011;63692;47.338;8.520;2023-07-24T12:46:58;2.70;;;1.13;;
75112;SDS011;63692;47.338;8.520;2023-07-24T12:49:24;5.35;;;1.48;;
75112;SDS011;63692;47.338;8.520;2023-07-24T12:51:49;5.32;;;1.83;;
75112;SDS011;63692;47.338;8.520;2023-07-24T12:54:15;3.50;;;1.80;;
75112;SDS011;63692;47.338;8.520;2023-07-24T12:56:41;2.90;;;1.50;;
75112;SDS011;63692;47.338;8.520;2023-07-24T12:59:06;3.95;;;1.95;;
75112;SDS011;63692;47.338;8.520;2023-07-24T13:01:32;4.43;;;1.60;;
75112;SDS011;63692;47.338;8.520;2023-07-24T13:03:58;4.70;;;1.52;;
75112;SDS011;63692;47.338;8.520;2023-07-24T13:06:23;6.30;;;1.48;;
75112;SDS011;63692;47.338;8.520;2023-07-24T13:08:49;3.35;;;1.52;;
75112;SDS011;63692;47.338;8.520;2023-07-24T13:11:15;4.15;;;1.70;;
75112;SDS011;63692;47.338;8.520;2023-07-24T13:13:41;3.13;;;1.50;;
75112;SDS011;63692;47.338;8.520;2023-07-24T13:16:07;2.83;;;1.38;;
75112;SDS011;63692;47.338;8.520;2023-07-24T13:18:32;3.55;;;1.55;;
75112;SDS011;63692;47.338;8.520;2023-07-24T13:20:58;3.53;;;1.60;;
75112;SDS011;63692;47.338;8.520;2023-07-24T13:23:23;3.65;;;1.50;;
75112;SDS011;63692;47.338;8.520;2023-07-24T13:25:49;3.03;;;1.67;;
75112;SDS011;63692;47.338;8.520;2023-07-24T13:28:15;3.20;;;1.60;;
75112;SDS011;63692;47.338;8.520;2023-07-24T13:35:44;3.80;;;1.70;;
75112;SDS011;63692;47.338;8.520;2023-07-24T13:38:09;6.15;;;2.00;;
75112;SDS011;63692;47.338;8.520;2023-07-24T13:40:35;3.53;;;1.65;;
75112;SDS011;63692;47.338;8.520;2023-07-24T13:43:03;7.05;;;1.98;;
75112;SDS011;63692;47.338;8.520;2023-07-24T13:45:30;5.10;;;1.92;;
75112;SDS011;63692;47.338;8.520;2023-07-24T13:47:56;4.55;;;1.77;;
75112;SDS011;63692;47.338;8.520;2023-07-24T13:50:25;7.30;;;2.72;;
75112;SDS011;63692;47.338;8.520;2023-07-24T13:53:01;4.90;;;2.30;;
75112;SDS011;63692;47.338;8.520;2023-07-24T13:55:26;4.70;;;2.17;;
75112;SDS011;63692;47.338;8.520;2023-07-24T14:07:44;6.57;;;2.35;;
75112;SDS011;63692;47.338;8.520;2023-07-24T14:10:09;4.03;;;2.20;;
75112;SDS011;63692;47.338;8.520;2023-07-24T14:12:35;3.95;;;2.13;;
75112;SDS011;63692;47.338;8.520;2023-07-24T14:15:01;4.75;;;2.10;;
75112;SDS011;63692;47.338;8.520;2023-07-24T14:17:26;5.43;;;2.65;;
75112;SDS011;63692;47.338;8.520;2023-07-24T14:19:53;4.80;;;2.17;;
75112;SDS011;63692;47.338;8.520;2023-07-24T14:22:19;4.72;;;2.40;;
75112;SDS011;63692;47.338;8.520;2023-07-24T14:24:44;4.70;;;2.00;;
75112;SDS011;63692;47.338;8.520;2023-07-24T14:27:11;9.80;;;2.25;;
75112;SDS011;63692;47.338;8.520;2023-07-24T14:29:38;4.78;;;2.13;;
75112;SDS011;63692;47.338;8.520;2023-07-24T14:32:04;3.70;;;1.80;;
75112;SDS011;63692;47.338;8.520;2023-07-24T14:34:30;5.05;;;2.03;;
75112;SDS011;63692;47.338;8.520;2023-07-24T14:36:55;3.53;;;1.90;;
75112;SDS011;63692;47.338;8.520;2023-07-24T14:39:21;4.78;;;2.08;;
75112;SDS011;63692;47.338;8.520;2023-07-24T14:41:47;4.50;;;1.73;;
75112;SDS011;63692;47.338;8.520;2023-07-24T14:44:12;7.68;;;2.33;;
75112;SDS011;63692;47.338;8.520;2023-07-24T14:46:38;4.45;;;1.92;;
75112;SDS011;63692;47.338;8.520;2023-07-24T14:49:05;5.05;;;2.17;;
75112;SDS011;63692;47.338;8.520;2023-07-24T14:51:30;6.43;;;2.33;;
75112;SDS011;63692;47.338;8.520;2023-07-24T14:53:56;4.47;;;2.30;;
75112;SDS011;63692;47.338;8.520;2023-07-24T14:56:21;5.40;;;2.72;;
75112;SDS011;63692;47.338;8.520;2023-07-24T14:58:47;8.30;;;2.80;;
75112;SDS011;63692;47.338;8.520;2023-07-24T15:01:15;6.22;;;3.10;;
75112;SDS011;63692;47.338;8.520;2023-07-24T15:03:41;5.50;;;2.60;;
75112;SDS011;63692;47.338;8.520;2023-07-24T15:06:07;4.85;;;2.65;;
75112;SDS011;63692;47.338;8.520;2023-07-24T15:08:33;5.22;;;2.60;;
75112;SDS011;63692;47.338;8.520;2023-07-24T15:10:59;5.22;;;2.67;;
75112;SDS011;63692;47.338;8.520;2023-07-24T15:13:25;5.18;;;2.40;;
75112;SDS011;63692;47.338;8.520;2023-07-24T15:15:51;3.97;;;2.30;;
75112;SDS011;63692;47.338;8.520;2023-07-24T15:18:16;3.80;;;1.80;;
75112;SDS011;63692;47.338;8.520;2023-07-24T15:20:42;4.72;;;2.13;;
75112;SDS011;63692;47.338;8.520;2023-07-24T15:23:07;6.68;;;2.45;;
75112;SDS011;63692;47.338;8.520;2023-07-24T15:25:33;4.45;;;2.10;;
75112;SDS011;63692;47.338;8.520;2023-07-24T15:27:58;8.20;;;3.40;;
75112;SDS011;63692;47.338;8.520;2023-07-24T15:30:24;8.55;;;2.03;;
75112;SDS011;63692;47.338;8.520;2023-07-24T15:32:50;5.32;;;1.73;;
75112;SDS011;63692;47.338;8.520;2023-07-24T15:35:16;7.50;;;2.40;;
75112;SDS011;63692;47.338;8.520;2023-07-24T15:37:41;4.25;;;1.95;;
75112;SDS011;63692;47.338;8.520;2023-07-24T15:40:08;5.00;;;2.30;;
75112;SDS011;63692;47.338;8.520;2023-07-24T15:42:34;5.50;;;2.10;;
75112;SDS011;63692;47.338;8.520;2023-07-24T15:45:00;4.55;;;2.40;;
75112;SDS011;63692;47.338;8.520;2023-07-24T15:49:53;5.68;;;2.30;;
75112;SDS011;63692;47.338;8.520;2023-07-24T15:52:19;3.95;;;2.20;;
75112;SDS011;63692;47.338;8.520;2023-07-24T15:54:44;9.27;;;3.60;;
75112;SDS011;63692;47.338;8.520;2023-07-24T15:57:10;9.02;;;2.60;;
75112;SDS011;63692;47.338;8.520;2023-07-24T15:59:35;16.08;;;9.57;;
75112;SDS011;63692;47.338;8.520;2023-07-24T16:02:02;8.23;;;4.18;;
75112;SDS011;63692;47.338;8.520;2023-07-24T16:04:28;7.07;;;4.03;;
75112;SDS011;63692;47.338;8.520;2023-07-24T16:06:54;6.47;;;3.05;;
75112;SDS011;63692;47.338;8.520;2023-07-24T16:09:19;6.63;;;2.60;;
75112;SDS011;63692;47.338;8.520;2023-07-24T16:11:46;7.38;;;2.60;;
75112;SDS011;63692;47.338;8.520;2023-07-24T16:14:12;5.10;;;2.40;;
75112;SDS011;63692;47.338;8.520;2023-07-24T16:16:38;11.82;;;4.00;;
75112;SDS011;63692;47.338;8.520;2023-07-24T16:19:17;16.00;;;3.28;;
75112;SDS011;63692;47.338;8.520;2023-07-24T16:21:45;10.63;;;3.33;;
75112;SDS011;63692;47.338;8.520;2023-07-24T16:24:12;11.90;;;3.28;;
75112;SDS011;63692;47.338;8.520;2023-07-24T16:26:40;11.90;;;3.63;;
75112;SDS011;63692;47.338;8.520;2023-07-24T16:29:06;8.90;;;3.40;;
75112;SDS011;63692;47.338;8.520;2023-07-24T16:31:31;11.15;;;3.63;;
75112;SDS011;63692;47.338;8.520;2023-07-24T16:33:57;19.98;;;12.32;;
75112;SDS011;63692;47.338;8.520;2023-07-24T16:36:23;9.30;;;3.67;;
75112;SDS011;63692;47.338;8.520;2023-07-24T16:38:49;5.50;;;2.67;;
75112;SDS011;63692;47.338;8.520;2023-07-24T16:41:15;6.18;;;2.53;;
75112;SDS011;63692;47.338;8.520;2023-07-24T16:43:42;6.22;;;2.22;;
75112;SDS011;63692;47.338;8.520;2023-07-24T16:46:07;5.00;;;1.65;;
75112;SDS011;63692;47.338;8.520;2023-07-24T16:48:33;4.43;;;1.73;;
75112;SDS011;63692;47.338;8.520;2023-07-24T16:50:58;5.57;;;1.73;;
75112;SDS011;63692;47.338;8.520;2023-07-24T16:53:24;6.03;;;2.15;;
75112;SDS011;63692;47.338;8.520;2023-07-24T16:55:50;5.03;;;2.00;;
75112;SDS011;63692;47.338;8.520;2023-07-24T16:58:16;4.88;;;2.17;;
75112;SDS011;63692;47.338;8.520;2023-07-24T17:00:42;4.03;;;1.83;;
75112;SDS011;63692;47.338;8.520;2023-07-24T17:03:08;6.28;;;2.25;;
75112;SDS011;63692;47.338;8.520;2023-07-24T17:05:33;5.60;;;2.33;;
75112;SDS011;63692;47.338;8.520;2023-07-24T17:07:59;4.88;;;2.20;;
75112;SDS011;63692;47.338;8.520;2023-07-24T17:10:25;5.05;;;2.03;;
75112;SDS011;63692;47.338;8.520;2023-07-24T17:12:50;4.40;;;2.08;;
75112;SDS011;63692;47.338;8.520;2023-07-24T17:15:16;4.82;;;2.03;;
75112;SDS011;63692;47.338;8.520;2023-07-24T17:17:42;5.40;;;2.00;;
75112;SDS011;63692;47.338;8.520;2023-07-24T17:20:09;5.45;;;2.40;;
75112;SDS011;63692;47.338;8.520;2023-07-24T17:22:35;5.30;;;2.47;;
75112;SDS011;63692;47.338;8.520;2023-07-24T17:25:01;7.50;;;2.45;;
75112;SDS011;63692;47.338;8.520;2023-07-24T17:27:27;6.93;;;2.55;;
75112;SDS011;63692;47.338;8.520;2023-07-24T17:29:55;5.22;;;2.03;;
75112;SDS011;63692;47.338;8.520;2023-07-24T17:32:20;5.55;;;1.98;;
75112;SDS011;63692;47.338;8.520;2023-07-24T17:34:47;5.53;;;2.30;;
75112;SDS011;63692;47.338;8.520;2023-07-24T17:37:13;4.32;;;2.20;;
75112;SDS011;63692;47.338;8.520;2023-07-24T17:39:40;3.65;;;1.98;;
75112;SDS011;63692;47.338;8.520;2023-07-24T17:42:06;6.47;;;3.88;;
75112;SDS011;63692;47.338;8.520;2023-07-24T17:44:31;9.65;;;4.32;;
75112;SDS011;63692;47.338;8.520;2023-07-24T17:46:57;6.57;;;2.38;;
75112;SDS011;63692;47.338;8.520;2023-07-24T17:49:22;6.30;;;2.80;;
75112;SDS011;63692;47.338;8.520;2023-07-24T17:51:48;6.57;;;2.53;;
75112;SDS011;63692;47.338;8.520;2023-07-24T17:54:14;4.07;;;2.28;;
75112;SDS011;63692;47.338;8.520;2023-07-24T17:56:40;4.28;;;2.08;;
75112;SDS011;63692;47.338;8.520;2023-07-24T17:59:06;5.43;;;2.97;;
75112;SDS011;63692;47.338;8.520;2023-07-24T18:01:31;6.07;;;2.70;;
75112;SDS011;63692;47.338;8.520;2023-07-24T18:03:58;5.75;;;2.90;;
75112;SDS011;63692;47.338;8.520;2023-07-24T18:06:24;5.65;;;2.53;;
75112;SDS011;63692;47.338;8.520;2023-07-24T18:08:50;4.30;;;2.17;;
75112;SDS011;63692;47.338;8.520;2023-07-24T18:11:15;5.05;;;2.70;;
75112;SDS011;63692;47.338;8.520;2023-07-24T18:13:41;5.63;;;2.55;;
75112;SDS011;63692;47.338;8.520;2023-07-24T18:16:06;7.93;;;2.60;;
75112;SDS011;63692;47.338;8.520;2023-07-24T18:18:32;6.45;;;2.53;;
75112;SDS011;63692;47.338;8.520;2023-07-24T18:20:58;4.80;;;2.50;;
75112;SDS011;63692;47.338;8.520;2023-07-24T18:23:23;9.35;;;2.80;;
75112;SDS011;63692;47.338;8.520;2023-07-24T18:25:49;5.85;;;2.58;;
75112;SDS011;63692;47.338;8.520;2023-07-24T18:28:14;4.72;;;2.47;;
75112;SDS011;63692;47.338;8.520;2023-07-24T18:30:41;8.20;;;3.03;;
75112;SDS011;63692;47.338;8.520;2023-07-24T18:33:06;4.97;;;2.58;;
75112;SDS011;63692;47.338;8.520;2023-07-24T18:35:32;7.93;;;2.60;;
75112;SDS011;63692;47.338;8.520;2023-07-24T18:37:57;4.50;;;2.33;;
75112;SDS011;63692;47.338;8.520;2023-07-24T18:40:23;7.50;;;2.60;;
75112;SDS011;63692;47.338;8.520;2023-07-24T18:42:49;4.97;;;2.90;;
75112;SDS011;63692;47.338;8.520;2023-07-24T18:45:14;5.45;;;2.50;;
75112;SDS011;63692;47.338;8.520;2023-07-24T18:47:40;7.15;;;2.80;;
75112;SDS011;63692;47.338;8.520;2023-07-24T18:50:06;10.32;;;2.92;;
75112;SDS011;63692;47.338;8.520;2023-07-24T18:52:32;6.55;;;2.85;;
75112;SDS011;63692;47.338;8.520;2023-07-24T18:54:58;4.97;;;2.55;;
75112;SDS011;63692;47.338;8.520;2023-07-24T18:57:26;6.93;;;2.80;;
75112;SDS011;63692;47.338;8.520;2023-07-24T18:59:52;9.10;;;3.08;;
75112;SDS011;63692;47.338;8.520;2023-07-24T19:02:18;5.65;;;2.88;;
75112;SDS011;63692;47.338;8.520;2023-07-24T19:04:44;19.65;;;13.65;;
75112;SDS011;63692;47.338;8.520;2023-07-24T19:07:09;10.88;;;8.23;;
75112;SDS011;63692;47.338;8.520;2023-07-24T19:09:35;7.57;;;4.55;;
75112;SDS011;63692;47.338;8.520;2023-07-24T19:14:28;8.32;;;2.92;;
75112;SDS011;63692;47.338;8.520;2023-07-24T19:16:53;9.30;;;4.53;;
75112;SDS011;63692;47.338;8.520;2023-07-24T19:19:19;7.38;;;2.72;;
75112;SDS011;63692;47.338;8.520;2023-07-24T19:21:45;5.50;;;3.20;;
75112;SDS011;63692;47.338;8.520;2023-07-24T19:24:10;5.80;;;2.90;;
75112;SDS011;63692;47.338;8.520;2023-07-24T19:26:36;5.45;;;3.05;;
75112;SDS011;63692;47.338;8.520;2023-07-24T19:29:02;6.70;;;3.08;;
75112;SDS011;63692;47.338;8.520;2023-07-24T19:31:27;5.97;;;3.40;;
75112;SDS011;63692;47.338;8.520;2023-07-24T19:33:53;6.43;;;3.40;;
75112;SDS011;63692;47.338;8.520;2023-07-24T19:36:18;5.55;;;2.92;;
75112;SDS011;63692;47.338;8.520;2023-07-24T19:38:44;4.63;;;2.95;;
75112;SDS011;63692;47.338;8.520;2023-07-24T19:41:10;6.03;;;3.53;;
75112;SDS011;63692;47.338;8.520;2023-07-24T19:43:35;8.45;;;5.80;;
75112;SDS011;63692;47.338;8.520;2023-07-24T19:46:05;8.45;;;5.20;;
75112;SDS011;63692;47.338;8.520;2023-07-24T19:48:31;6.38;;;3.88;;
75112;SDS011;63692;47.338;8.520;2023-07-24T19:50:57;5.97;;;3.65;;
75112;SDS011;63692;47.338;8.520;2023-07-24T19:53:24;6.25;;;3.40;;
75112;SDS011;63692;47.338;8.520;2023-07-24T19:55:51;5.82;;;3.25;;
75112;SDS011;63692;47.338;8.520;2023-07-24T19:58:17;6.05;;;3.35;;
75112;SDS011;63692;47.338;8.520;2023-07-24T20:00:47;6.88;;;3.17;;
75112;SDS011;63692;47.338;8.520;2023-07-24T20:03:15;5.05;;;2.97;;
75112;SDS011;63692;47.338;8.520;2023-07-24T20:08:36;7.38;;;3.20;;
75112;SDS011;63692;47.338;8.520;2023-07-24T20:11:03;7.32;;;3.33;;
75112;SDS011;63692;47.338;8.520;2023-07-24T20:13:32;6.22;;;3.15;;
75112;SDS011;63692;47.338;8.520;2023-07-24T20:15:58;9.68;;;3.30;;
75112;SDS011;63692;47.338;8.520;2023-07-24T20:18:24;8.15;;;3.97;;
75112;SDS011;63692;47.338;8.520;2023-07-24T20:20:50;6.03;;;3.50;;
75112;SDS011;63692;47.338;8.520;2023-07-24T20:23:16;6.25;;;3.35;;
75112;SDS011;63692;47.338;8.520;2023-07-24T20:25:44;6.97;;;3.83;;
75112;SDS011;63692;47.338;8.520;2023-07-24T20:28:10;6.60;;;3.92;;
75112;SDS011;63692;47.338;8.520;2023-07-24T20:30:37;8.82;;;4.20;;
75112;SDS011;63692;47.338;8.520;2023-07-24T20:33:03;6.57;;;4.10;;
75112;SDS011;63692;47.338;8.520;2023-07-24T20:35:29;8.57;;;4.15;;
75112;SDS011;63692;47.338;8.520;2023-07-24T20:37:56;7.47;;;4.05;;
75112;SDS011;63692;47.338;8.520;2023-07-24T20:40:23;7.28;;;4.28;;
75112;SDS011;63692;47.338;8.520;2023-07-24T20:42:48;7.97;;;4.28;;
75112;SDS011;63692;47.338;8.520;2023-07-24T20:45:14;7.28;;;4.07;;
75112;SDS011;63692;47.338;8.520;2023-07-24T20:47:40;8.15;;;4.28;;
75112;SDS011;63692;47.338;8.520;2023-07-24T20:50:05;8.48;;;4.60;;
75112;SDS011;63692;47.338;8.520;2023-07-24T20:54:59;6.88;;;4.45;;
